createdAt,value
2019-01-04T00:00:24.118Z,102460.26
2019-01-04T00:02:54.148Z,102464.33
2019-01-04T00:05:22.649Z,102459.09
2019-01-04T00:07:51.217Z,102459.00
2019-01-04T00:10:19.718Z,102465.19
2019-01-04T00:12:48.146Z,102472.94
2019-01-04T00:15:16.699Z,102473.57
2019-01-04T00:17:45.086Z,102469.92
2019-01-04T00:20:13.528Z,102466.98
2019-01-04T00:22:41.957Z,102459.92
2019-01-04T00:25:10.434Z,102457.31
2019-01-04T00:27:38.868Z,102452.30
2019-01-04T00:30:10.635Z,102452.80
2019-01-04T00:32:39.157Z,102445.81
2019-01-04T00:35:08.220Z,102445.62
2019-01-04T00:37:36.630Z,102443.80
2019-01-04T00:40:07.535Z,102438.89
2019-01-04T00:42:36.145Z,102444.69
2019-01-04T00:45:06.418Z,102446.08
2019-01-04T00:47:35.593Z,102443.56
2019-01-04T00:50:06.597Z,102436.70
2019-01-04T00:52:35.147Z,102443.30
2019-01-04T00:55:09.313Z,102453.00
2019-01-04T00:57:52.545Z,102450.87
2019-01-04T01:00:32.918Z,102458.69
2019-01-04T01:03:07.193Z,102456.20
2019-01-04T01:05:58.123Z,102457.80
2019-01-04T01:08:46.855Z,102439.72
2019-01-04T01:11:24.216Z,102438.95
2019-01-04T01:13:55.696Z,102438.16
2019-01-04T01:16:49.942Z,102444.09
2019-01-04T01:19:30.321Z,102441.38
2019-01-04T01:22:10.988Z,102451.51
2019-01-04T01:25:06.563Z,102445.31
2019-01-04T01:28:11.029Z,102445.55
2019-01-04T01:31:01.933Z,102450.25
2019-01-04T01:33:35.866Z,102444.06
2019-01-04T01:36:26.601Z,102443.36
2019-01-04T01:39:20.381Z,102434.76
2019-01-04T01:42:09.866Z,102427.50
2019-01-04T01:44:47.167Z,102427.50
2019-01-04T01:47:18.678Z,102431.84
2019-01-04T01:49:56.075Z,102430.59
2019-01-04T01:52:27.568Z,102436.02
2019-01-04T01:54:59.289Z,102430.02
2019-01-04T01:57:27.767Z,102427.01
2019-01-04T01:59:56.191Z,102426.45
2019-01-04T02:02:24.664Z,102440.09
2019-01-04T02:04:53.119Z,102441.14
2019-01-04T02:07:21.610Z,102438.03
2019-01-04T02:09:50.074Z,102437.67
2019-01-04T02:12:18.510Z,102437.27
2019-01-04T02:14:47.030Z,102432.64
2019-01-04T02:17:15.461Z,102432.23
2019-01-04T02:19:43.957Z,102435.31
2019-01-04T02:22:12.494Z,102430.42
2019-01-04T02:24:40.920Z,102427.97
2019-01-04T02:27:09.453Z,102430.42
2019-01-04T02:29:37.883Z,102426.55
2019-01-04T02:32:06.340Z,102421.31
2019-01-04T02:34:34.894Z,102423.73
2019-01-04T02:37:03.375Z,102414.86
2019-01-04T02:39:31.827Z,102409.92
2019-01-04T02:42:00.302Z,102402.57
2019-01-04T02:44:28.760Z,102408.56
2019-01-04T02:46:57.175Z,102408.56
2019-01-04T02:49:25.619Z,102417.80
2019-01-04T02:51:54.071Z,102412.64
2019-01-04T02:54:22.559Z,102414.29
2019-01-04T02:56:50.988Z,102419.72
2019-01-04T02:59:19.460Z,102419.23
2019-01-04T03:01:47.942Z,102429.66
2019-01-04T03:04:16.379Z,102432.63
2019-01-04T03:06:44.910Z,102426.94
2019-01-04T03:09:13.325Z,102422.34
2019-01-04T03:11:41.754Z,102415.98
2019-01-04T03:14:10.208Z,102409.45
2019-01-04T03:16:38.626Z,102403.66
2019-01-04T03:19:07.081Z,102391.64
2019-01-04T03:21:36.285Z,102393.55
2019-01-04T03:24:04.733Z,102399.61
2019-01-04T03:26:33.162Z,102398.71
2019-01-04T03:29:02.147Z,102396.95
2019-01-04T03:31:30.633Z,102390.45
2019-01-04T03:33:59.060Z,102390.34
2019-01-04T03:36:27.507Z,102387.13
2019-01-04T03:38:55.979Z,102380.79
2019-01-04T03:41:24.532Z,102380.48
2019-01-04T03:43:53.039Z,102367.12
2019-01-04T03:46:21.493Z,102360.03
2019-01-04T03:48:49.992Z,102354.39
2019-01-04T03:51:19.989Z,102354.60
2019-01-04T03:53:48.458Z,102355.74
2019-01-04T03:56:16.976Z,102358.17
2019-01-04T03:58:45.473Z,102348.28
2019-01-04T04:01:13.911Z,102341.59
2019-01-04T04:03:42.367Z,102329.64
2019-01-04T04:06:10.786Z,102323.71
2019-01-04T04:08:39.277Z,102319.94
2019-01-04T04:11:07.773Z,102318.92
2019-01-04T04:13:36.231Z,102313.39
2019-01-04T04:16:04.717Z,102319.04
2019-01-04T04:18:33.144Z,102315.50
2019-01-04T04:21:01.558Z,102312.80
2019-01-04T04:23:30.018Z,102320.75
2019-01-04T04:25:58.507Z,102316.18
2019-01-04T04:28:26.927Z,102314.55
2019-01-04T04:30:55.390Z,102316.06
2019-01-04T04:33:23.809Z,102318.43
2019-01-04T04:35:52.239Z,102323.25
2019-01-04T04:38:20.714Z,102323.80
2019-01-04T04:40:49.156Z,102310.05
2019-01-04T04:43:17.627Z,102314.78
2019-01-04T04:45:46.087Z,102291.09
2019-01-04T04:48:14.532Z,102301.01
2019-01-04T04:50:42.988Z,102303.53
2019-01-04T04:53:11.529Z,102299.12
2019-01-04T04:55:39.954Z,102294.58
2019-01-04T04:58:08.424Z,102284.97
2019-01-04T05:00:36.872Z,102272.05
2019-01-04T05:03:05.322Z,102265.53
2019-01-04T05:05:38.862Z,102261.03
2019-01-04T05:08:07.239Z,102256.94
2019-01-04T05:10:41.634Z,102260.59
2019-01-04T05:13:10.046Z,102264.06
2019-01-04T05:15:38.608Z,102256.55
2019-01-04T05:18:07.042Z,102248.53
2019-01-04T05:20:35.465Z,102259.71
2019-01-04T05:23:03.934Z,102264.04
2019-01-04T05:25:32.366Z,102259.95
2019-01-04T05:28:00.897Z,102252.88
2019-01-04T05:30:29.321Z,102253.20
2019-01-04T05:32:57.770Z,102246.58
2019-01-04T05:35:26.656Z,102241.69
2019-01-04T05:37:55.132Z,102240.52
2019-01-04T05:40:23.546Z,102236.02
2019-01-04T05:42:51.987Z,102234.44
2019-01-04T05:45:20.451Z,102234.04
2019-01-04T05:47:48.909Z,102239.80
2019-01-04T05:50:17.342Z,102231.43
2019-01-04T05:52:45.764Z,102230.66
2019-01-04T05:55:14.230Z,102233.33
2019-01-04T05:57:42.663Z,102234.75
2019-01-04T06:00:11.582Z,102233.41
2019-01-04T06:02:40.013Z,102232.69
2019-01-04T06:05:08.608Z,102231.20
2019-01-04T06:07:37.069Z,102225.30
2019-01-04T06:10:07.450Z,102220.84
2019-01-04T06:12:35.989Z,102220.21
2019-01-04T06:15:05.405Z,102219.20
2019-01-04T06:17:33.886Z,102228.89
2019-01-04T06:20:02.261Z,102232.27
2019-01-04T06:22:30.743Z,102225.25
2019-01-04T06:24:59.169Z,102219.34
2019-01-04T06:27:27.609Z,102209.97
2019-01-04T06:29:56.127Z,102212.48
2019-01-04T06:32:24.558Z,102214.84
2019-01-04T06:34:53.049Z,102213.56
2019-01-04T06:37:21.491Z,102214.20
2019-01-04T06:39:49.874Z,102226.81
2019-01-04T06:42:18.813Z,102227.67
2019-01-04T06:44:47.276Z,102220.19
2019-01-04T06:47:18.707Z,102221.53
2019-01-04T06:49:47.171Z,102218.83
2019-01-04T06:52:15.581Z,102219.23
2019-01-04T06:55:18.980Z,102215.85
2019-01-04T06:57:53.428Z,102213.78
2019-01-04T07:00:21.883Z,102216.39
2019-01-04T07:02:50.445Z,102221.44
2019-01-04T07:05:18.972Z,102223.16
2019-01-04T07:07:47.732Z,102217.78
2019-01-04T07:10:16.294Z,102214.33
2019-01-04T07:12:45.582Z,102214.81
2019-01-04T07:15:14.032Z,102208.82
2019-01-04T07:17:42.475Z,102206.75
2019-01-04T07:20:11.017Z,102205.98
2019-01-04T07:22:39.496Z,102202.73
2019-01-04T07:25:07.902Z,102195.97
2019-01-04T07:27:36.319Z,102188.31
2019-01-04T07:30:07.222Z,102182.63
2019-01-04T07:32:35.684Z,102183.08
2019-01-04T07:35:04.392Z,102183.56
2019-01-04T07:37:32.824Z,102176.13
2019-01-04T07:40:01.274Z,102178.01
2019-01-04T07:42:29.747Z,102166.97
2019-01-04T07:44:58.174Z,102180.61
2019-01-04T07:47:26.622Z,102175.97
2019-01-04T07:49:55.076Z,102175.56
2019-01-04T07:52:23.535Z,102174.35
2019-01-04T07:54:54.267Z,102165.87
2019-01-04T07:57:22.732Z,102168.98
2019-01-04T07:59:51.153Z,102160.09
2019-01-04T08:02:45.474Z,102156.03
2019-01-04T08:05:16.449Z,102154.45
2019-01-04T08:07:44.841Z,102159.98
2019-01-04T08:10:13.987Z,102162.42
2019-01-04T08:12:42.474Z,102168.91
2019-01-04T08:15:11.467Z,102170.21
2019-01-04T08:17:40.013Z,102165.33
2019-01-04T08:20:10.772Z,102160.41
2019-01-04T08:22:39.284Z,102159.06
2019-01-04T08:25:08.642Z,102155.35
2019-01-04T08:27:37.060Z,102147.94
2019-01-04T08:30:11.000Z,102147.12
2019-01-04T08:32:39.412Z,102137.97
2019-01-04T08:35:07.834Z,102122.49
2019-01-04T08:37:36.381Z,102135.36
2019-01-04T08:40:07.839Z,102136.58
2019-01-04T08:42:37.405Z,102131.45
2019-01-04T08:45:07.664Z,102130.19
2019-01-04T08:47:36.111Z,102128.39
2019-01-04T08:50:06.973Z,102120.87
2019-01-04T08:52:35.532Z,102108.52
2019-01-04T08:55:06.095Z,102104.86
2019-01-04T08:57:34.759Z,102107.80
2019-01-04T09:00:04.111Z,102105.72
2019-01-04T09:02:32.560Z,102101.89
2019-01-04T09:05:02.558Z,102100.75
2019-01-04T09:07:30.998Z,102099.36
2019-01-04T09:09:59.775Z,102101.94
2019-01-04T09:12:28.202Z,102106.61
2019-01-04T09:14:56.736Z,102106.73
2019-01-04T09:17:25.171Z,102106.41
2019-01-04T09:19:53.609Z,102094.52
2019-01-04T09:22:22.132Z,102086.45
2019-01-04T09:24:50.544Z,102086.09
2019-01-04T09:27:20.329Z,102089.19
2019-01-04T09:29:48.792Z,102079.64
2019-01-04T09:32:17.219Z,102076.52
2019-01-04T09:34:45.648Z,102082.09
2019-01-04T09:37:14.233Z,102083.36
2019-01-04T09:39:48.410Z,102083.56
2019-01-04T09:42:14.932Z,102077.17
2019-01-04T09:44:44.001Z,102070.27
2019-01-04T09:47:12.733Z,102064.48
2019-01-04T09:49:41.168Z,102055.98
2019-01-04T09:52:09.731Z,102054.39
2019-01-04T09:54:38.166Z,102050.34
2019-01-04T09:57:06.658Z,102051.08
2019-01-04T09:59:35.120Z,102044.28
2019-01-04T10:02:03.646Z,102043.63
2019-01-04T10:04:32.055Z,102039.58
2019-01-04T10:07:00.474Z,102030.41
2019-01-04T10:09:29.081Z,102036.39
2019-01-04T10:11:57.497Z,102027.41
2019-01-04T10:14:25.936Z,102025.08
2019-01-04T10:16:54.397Z,102020.02
2019-01-04T10:19:22.880Z,102008.84
2019-01-04T10:21:51.312Z,102006.57
2019-01-04T10:24:19.778Z,102003.55
2019-01-04T10:26:48.218Z,102005.52
2019-01-04T10:29:16.678Z,101993.06
2019-01-04T10:31:45.139Z,101999.56
2019-01-04T10:34:13.594Z,101988.33
2019-01-04T10:36:42.529Z,101984.23
2019-01-04T10:39:10.990Z,101975.79
2019-01-04T10:41:41.546Z,101975.59
2019-01-04T10:44:10.033Z,101975.77
2019-01-04T10:46:38.482Z,101967.77
2019-01-04T10:49:06.986Z,101961.96
2019-01-04T10:51:35.448Z,101960.77
2019-01-04T10:54:03.927Z,101940.53
2019-01-04T10:56:32.381Z,101935.41
2019-01-04T10:59:00.869Z,101930.77
2019-01-04T11:01:29.284Z,101921.98
2019-01-04T11:03:57.758Z,101921.56
2019-01-04T11:06:26.208Z,101917.87
2019-01-04T11:08:54.616Z,101921.23
2019-01-04T11:11:23.081Z,101919.83
2019-01-04T11:13:51.533Z,101903.02
2019-01-04T11:16:20.817Z,101913.12
2019-01-04T11:18:49.284Z,101924.55
2019-01-04T11:21:17.764Z,101909.95
2019-01-04T11:23:55.097Z,101907.55
2019-01-04T11:26:26.571Z,101902.02
2019-01-04T11:29:26.695Z,101900.98
2019-01-04T11:32:03.770Z,101884.10
2019-01-04T11:34:41.013Z,101879.96
2019-01-04T11:37:28.811Z,101873.64
2019-01-04T11:40:15.509Z,101863.97
2019-01-04T11:42:58.879Z,101844.92
2019-01-04T11:45:32.891Z,101840.79
2019-01-04T11:48:16.479Z,101831.55
2019-01-04T11:50:56.221Z,101822.98
2019-01-04T11:53:24.763Z,101820.05
2019-01-04T11:55:53.680Z,101819.63
2019-01-04T11:58:22.102Z,101809.52
2019-01-04T12:00:51.870Z,101808.31
2019-01-04T12:03:20.354Z,101799.02
2019-01-04T12:05:48.882Z,101800.63
2019-01-04T12:08:17.946Z,101775.43
2019-01-04T12:10:46.424Z,101793.95
2019-01-04T12:13:14.865Z,101788.42
2019-01-04T12:15:43.298Z,101787.07
2019-01-04T12:18:11.704Z,101761.45
2019-01-04T12:20:45.425Z,101758.73
2019-01-04T12:23:11.224Z,101755.86
2019-01-04T12:25:40.083Z,101738.12
2019-01-04T12:28:08.522Z,101740.30
2019-01-04T12:30:36.955Z,101739.03
2019-01-04T12:33:05.385Z,101733.84
2019-01-04T12:35:33.847Z,101733.05
2019-01-04T12:38:02.330Z,101733.91
2019-01-04T12:40:30.846Z,101734.83
2019-01-04T12:43:11.200Z,101738.14
2019-01-04T12:45:39.718Z,101748.39
2019-01-04T12:48:11.106Z,101755.50
2019-01-04T12:50:39.519Z,101749.66
2019-01-04T12:53:08.022Z,101755.63
2019-01-04T12:55:36.454Z,101750.16
2019-01-04T12:58:04.895Z,101755.30
2019-01-04T13:00:33.392Z,101752.05
2019-01-04T13:03:01.838Z,101749.10
2019-01-04T13:05:30.303Z,101746.51
2019-01-04T13:07:58.755Z,101731.80
2019-01-04T13:10:27.233Z,101720.42
2019-01-04T13:12:55.671Z,101711.91
2019-01-04T13:15:24.101Z,101711.65
2019-01-04T13:17:53.191Z,101704.53
2019-01-04T13:20:21.616Z,101691.05
2019-01-04T13:22:50.099Z,101703.80
2019-01-04T13:25:18.529Z,101715.65
2019-01-04T13:27:46.966Z,101715.17
2019-01-04T13:30:15.500Z,101705.06
2019-01-04T13:32:43.906Z,101714.03
2019-01-04T13:35:12.369Z,101711.80
2019-01-04T13:37:41.089Z,101722.89
2019-01-04T13:40:09.536Z,101722.95
2019-01-04T13:42:37.944Z,101725.06
2019-01-04T13:45:07.648Z,101723.80
2019-01-04T13:47:36.148Z,101723.45
2019-01-04T13:50:05.425Z,101719.18
2019-01-04T13:52:33.888Z,101719.59
2019-01-04T13:55:02.339Z,101714.12
2019-01-04T13:57:30.749Z,101705.73
2019-01-04T13:59:59.224Z,101707.35
2019-01-04T14:02:28.710Z,101708.06
2019-01-04T14:04:57.125Z,101705.53
2019-01-04T14:07:25.567Z,101697.17
2019-01-04T14:09:54.008Z,101697.67
2019-01-04T14:12:22.443Z,101693.44
2019-01-04T14:14:50.922Z,101685.48
2019-01-04T14:17:19.329Z,101676.16
2019-01-04T14:19:57.911Z,101675.42
2019-01-04T14:22:26.718Z,101676.22
2019-01-04T14:24:55.196Z,101681.77
2019-01-04T14:27:23.786Z,101676.27
2019-01-04T14:29:52.242Z,101667.06
2019-01-04T14:32:20.829Z,101658.70
2019-01-04T14:34:49.325Z,101662.85
2019-01-04T14:37:17.754Z,101660.73
2019-01-04T14:39:46.291Z,101659.91
2019-01-04T14:42:14.702Z,101664.20
2019-01-04T14:44:43.249Z,101655.75
2019-01-04T14:47:11.939Z,101669.32
2019-01-04T14:49:40.635Z,101664.73
2019-01-04T14:52:09.269Z,101658.28
2019-01-04T14:54:37.696Z,101659.66
2019-01-04T14:57:06.158Z,101658.89
2019-01-04T14:59:34.651Z,101660.57
2019-01-04T15:02:03.466Z,101646.66
2019-01-04T15:04:31.960Z,101647.92
2019-01-04T15:07:00.457Z,101653.06
2019-01-04T15:09:31.186Z,101663.19
2019-01-04T15:11:59.794Z,101663.63
2019-01-04T15:14:28.210Z,101662.83
2019-01-04T15:16:56.839Z,101673.45
2019-01-04T15:19:25.306Z,101664.65
2019-01-04T15:21:54.020Z,101661.70
2019-01-04T15:24:22.665Z,101669.35
2019-01-04T15:26:51.533Z,101667.67
2019-01-04T15:29:20.345Z,101676.12
2019-01-04T15:31:48.893Z,101687.52
2019-01-04T15:34:17.777Z,101675.33
2019-01-04T15:36:46.156Z,101671.17
2019-01-04T15:39:14.912Z,101664.84
2019-01-04T15:41:43.368Z,101659.36
2019-01-04T15:44:11.873Z,101653.88
2019-01-04T15:46:40.478Z,101658.59
2019-01-04T15:49:08.969Z,101651.55
2019-01-04T15:51:37.496Z,101656.97
2019-01-04T15:54:05.974Z,101651.95
2019-01-04T15:56:34.738Z,101647.33
2019-01-04T15:59:03.191Z,101633.41
2019-01-04T16:01:31.663Z,101632.61
2019-01-04T16:04:00.199Z,101635.98
2019-01-04T16:06:28.694Z,101641.11
2019-01-04T16:08:57.168Z,101637.75
2019-01-04T16:11:25.606Z,101637.31
2019-01-04T16:13:54.142Z,101629.73
2019-01-04T16:16:22.557Z,101635.27
2019-01-04T16:18:51.060Z,101623.52
2019-01-04T16:21:19.566Z,101620.15
2019-01-04T16:23:48.014Z,101621.42
2019-01-04T16:26:16.450Z,101625.69
2019-01-04T16:28:44.915Z,101626.80
2019-01-04T16:31:13.351Z,101625.09
2019-01-04T16:33:41.811Z,101621.31
2019-01-04T16:36:10.242Z,101626.20
2019-01-04T16:38:38.692Z,101621.91
2019-01-04T16:41:07.132Z,101610.39
2019-01-04T16:43:35.568Z,101608.27
2019-01-04T16:46:04.859Z,101604.47
2019-01-04T16:48:33.388Z,101600.25
2019-01-04T16:51:01.825Z,101596.87
2019-01-04T16:53:30.265Z,101602.78
2019-01-04T16:55:58.683Z,101607.44
2019-01-04T16:58:27.138Z,101610.02
2019-01-04T17:00:55.570Z,101608.34
2019-01-04T17:03:24.003Z,101606.33
2019-01-04T17:05:52.610Z,101599.58
2019-01-04T17:08:21.144Z,101599.59
2019-01-04T17:10:49.605Z,101600.12
2019-01-04T17:13:18.030Z,101595.07
2019-01-04T17:15:46.450Z,101592.10
2019-01-04T17:18:14.935Z,101588.73
2019-01-04T17:20:43.402Z,101582.02
2019-01-04T17:23:13.454Z,101589.63
2019-01-04T17:25:41.969Z,101593.44
2019-01-04T17:28:10.380Z,101590.11
2019-01-04T17:30:39.030Z,101595.61
2019-01-04T17:33:07.721Z,101584.67
2019-01-04T17:35:36.222Z,101586.37
2019-01-04T17:38:04.674Z,101590.65
2019-01-04T17:40:34.767Z,101592.83
2019-01-04T17:43:03.227Z,101587.77
2019-01-04T17:45:31.690Z,101597.05
2019-01-04T17:48:00.186Z,101592.52
2019-01-04T17:50:28.653Z,101593.79
2019-01-04T17:52:57.086Z,101592.98
2019-01-04T17:55:25.603Z,101590.04
2019-01-04T17:57:54.063Z,101581.59
2019-01-04T18:00:23.255Z,101584.55
2019-01-04T18:02:51.783Z,101584.97
2019-01-04T18:05:20.310Z,101588.45
2019-01-04T18:07:48.744Z,101583.39
2019-01-04T18:10:17.187Z,101583.83
2019-01-04T18:12:45.636Z,101582.61
2019-01-04T18:15:14.065Z,101585.16
2019-01-04T18:17:42.525Z,101583.45
2019-01-04T18:20:11.106Z,101572.95
2019-01-04T18:22:39.470Z,101573.85
2019-01-04T18:25:08.414Z,101573.02
2019-01-04T18:27:36.926Z,101569.58
2019-01-04T18:30:08.623Z,101579.77
2019-01-04T18:32:37.068Z,101581.09
2019-01-04T18:35:19.836Z,101572.22
2019-01-04T18:37:48.306Z,101571.02
2019-01-04T18:40:16.726Z,101572.70
2019-01-04T18:42:45.252Z,101581.69
2019-01-04T18:45:13.821Z,101577.47
2019-01-04T18:47:42.262Z,101571.18
2019-01-04T18:50:13.105Z,101568.64
2019-01-04T18:52:41.566Z,101567.84
2019-01-04T18:55:10.089Z,101574.61
2019-01-04T18:57:38.525Z,101573.81
2019-01-04T19:00:10.076Z,101567.06
2019-01-04T19:02:38.541Z,101569.17
2019-01-04T19:05:08.016Z,101572.17
2019-01-04T19:07:36.460Z,101565.42
2019-01-04T19:10:06.973Z,101559.61
2019-01-04T19:12:35.428Z,101565.97
2019-01-04T19:15:04.990Z,101572.35
2019-01-04T19:17:33.424Z,101579.96
2019-01-04T19:20:01.909Z,101574.94
2019-01-04T19:22:30.325Z,101575.38
2019-01-04T19:24:58.752Z,101578.39
2019-01-04T19:27:27.251Z,101579.34
2019-01-04T19:29:55.694Z,101583.63
2019-01-04T19:32:24.122Z,101585.78
2019-01-04T19:34:52.611Z,101584.56
2019-01-04T19:37:21.195Z,101584.20
2019-01-04T19:39:49.666Z,101582.23
2019-01-04T19:42:18.088Z,101579.76
2019-01-04T19:44:46.641Z,101581.13
2019-01-04T19:47:15.095Z,101574.90
2019-01-04T19:49:43.566Z,101581.24
2019-01-04T19:52:12.037Z,101574.98
2019-01-04T19:54:40.504Z,101569.55
2019-01-04T19:57:08.918Z,101576.73
2019-01-04T19:59:37.333Z,101573.36
2019-01-04T20:02:06.042Z,101567.11
2019-01-04T20:04:34.495Z,101572.25
2019-01-04T20:07:35.953Z,101570.97
2019-01-04T20:10:51.764Z,101562.09
2019-01-04T20:13:42.748Z,101561.81
2019-01-04T20:16:33.234Z,101557.17
2019-01-04T20:19:19.628Z,101549.64
2019-01-04T20:21:50.168Z,101546.22
2019-01-04T20:24:20.249Z,101546.69
2019-01-04T20:26:59.244Z,101535.31
2019-01-04T20:29:45.547Z,101528.55
2019-01-04T20:32:21.347Z,101521.40
2019-01-04T20:35:07.495Z,101513.84
2019-01-04T20:37:43.383Z,101508.34
2019-01-04T20:40:19.235Z,101524.87
2019-01-04T20:43:04.521Z,101521.45
2019-01-04T20:45:34.593Z,101526.10
2019-01-04T20:48:07.379Z,101526.53
2019-01-04T20:50:53.696Z,101523.14
2019-01-04T20:53:23.797Z,101518.54
2019-01-04T20:56:02.386Z,101519.00
2019-01-04T20:58:32.451Z,101508.39
2019-01-04T21:01:08.786Z,101503.83
2019-01-04T21:03:44.618Z,101500.90
2019-01-04T21:06:26.837Z,101493.28
2019-01-04T21:09:13.372Z,101496.67
2019-01-04T21:11:43.457Z,101494.98
2019-01-04T21:14:29.628Z,101489.48
2019-01-04T21:17:16.243Z,101494.61
2019-01-04T21:20:02.887Z,101484.48
2019-01-04T21:22:35.712Z,101477.34
2019-01-04T21:25:06.401Z,101480.73
2019-01-04T21:27:39.205Z,101478.23
2019-01-04T21:30:09.437Z,101475.27
2019-01-04T21:32:54.460Z,101480.35
2019-01-04T21:35:27.569Z,101474.84
2019-01-04T21:38:00.797Z,101471.09
2019-01-04T21:40:45.561Z,101475.27
2019-01-04T21:43:21.628Z,101471.09
2019-01-04T21:45:54.636Z,101461.78
2019-01-04T21:48:24.700Z,101462.20
2019-01-04T21:51:11.081Z,101468.59
2019-01-04T21:53:57.553Z,101470.66
2019-01-04T21:56:36.647Z,101467.32
2019-01-04T21:59:22.541Z,101462.66
2019-01-04T22:02:08.735Z,101458.39
2019-01-04T22:04:53.415Z,101457.16
2019-01-04T22:07:35.541Z,101451.66
2019-01-04T22:10:06.157Z,101451.66
2019-01-04T22:12:39.048Z,101452.09
2019-01-04T22:15:09.224Z,101448.31
2019-01-04T22:17:57.254Z,101453.39
2019-01-04T22:20:29.934Z,101438.59
2019-01-04T22:23:02.485Z,101430.55
2019-01-04T22:25:38.284Z,101428.44
2019-01-04T22:28:23.377Z,101433.09
2019-01-04T22:30:59.041Z,101426.78
2019-01-04T22:33:47.183Z,101422.12
2019-01-04T22:36:33.187Z,101420.43
2019-01-04T22:39:03.260Z,101414.52
2019-01-04T22:41:33.340Z,101410.31
2019-01-04T22:44:05.887Z,101402.27
2019-01-04T22:46:35.939Z,101402.70
2019-01-04T22:49:08.496Z,101398.93
2019-01-04T22:51:53.574Z,101393.00
2019-01-04T22:54:23.694Z,101380.73
2019-01-04T22:57:06.040Z,101388.81
2019-01-04T22:59:44.627Z,101381.19
2019-01-04T23:02:17.671Z,101371.92
2019-01-04T23:04:53.211Z,101362.57
2019-01-04T23:07:35.193Z,101357.95
2019-01-04T23:10:05.633Z,101349.48
2019-01-04T23:12:47.464Z,101359.65
2019-01-04T23:15:33.606Z,101368.11
2019-01-04T23:18:03.699Z,101369.00
2019-01-04T23:20:50.024Z,101363.45
2019-01-04T23:23:36.194Z,101365.19
2019-01-04T23:26:06.285Z,101367.30
2019-01-04T23:28:42.507Z,101371.96
2019-01-04T23:31:15.538Z,101364.80
2019-01-04T23:33:45.616Z,101358.87
2019-01-04T23:36:24.717Z,101349.98
2019-01-04T23:39:11.489Z,101342.83
2019-01-04T23:41:58.097Z,101339.02
2019-01-04T23:44:33.704Z,101336.91
2019-01-04T23:47:20.432Z,101320.01
2019-01-04T23:49:59.198Z,101306.50
2019-01-04T23:52:34.921Z,101309.04
2019-01-04T23:55:21.527Z,101314.12
2019-01-04T23:58:07.860Z,101305.69
